Lady Ayan — 3EET5 — position and weather

sailwx.info

Track history (hours):
 
Tides and Currents Weather Stations Pressure Air Temp Water Temp Dewpoint Dewpoint Depression Visibility Wind Speed Wind Dir Waves Ship Positions

Lady Ayan

Last reported at 2018-Jan-05 08:38 UTC. Time now 2018-Jan-19 09:50 UTC.
Position N 37°58' E 026°22'.
Warning: this ship's position is 14 days out of date.

Length 95 m; draft 3.7 m.

Type: Cargo ship. MMSI: 372212000.

Date/timePositionNaut miles runAvg speedWind from/ knotsBaromVisibWave heightAir tempDewpointWater temp
2018-Jan-05 08:38N 37°58' E 026°22'210.5
2018-Jan-05 08:28N 37°56' E 026°23'510.4
2018-Jan-05 08:00N 37°52' E 026°26'1210.1
2018-Jan-05 06:51N 37°41' E 026°32'3 9.6
2018-Jan-05 06:29N 37°39' E 026°35'7 9.7
2018-Jan-05 05:45N 37°33' E 026°41'5 9.5
2018-Jan-05 05:12N 37°29' E 026°45'2 9.7
2018-Jan-05 05:00N 37°28' E 026°47'7 9.8
2018-Jan-05 04:18N 37°22' E 026°51'  
2017-Dec-27 23:29N 36°42' E 027°19'39 8.7
2017-Dec-27 18:59N 37°15' E 026°54'510.0
2017-Dec-27 18:30N 37°19' E 026°51'510.1
2017-Dec-27 18:00N 37°24' E 026°48'15 9.8
2017-Dec-27 16:26N 37°36' E 026°36'13 9.3
2017-Dec-27 15:03N 37°47' E 026°29'0 9.5
2017-Dec-27 15:00N 37°48' E 026°29'5 9.5
2017-Dec-27 14:30N 37°52' E 026°26'510.1
2017-Dec-27 14:00N 37°57' E 026°23'  
Track history (hours):
 
Tides and Currents Weather Stations Pressure Air Temp Water Temp Dewpoint Dewpoint Depression Visibility Wind Speed Wind Dir Waves Ship Positions

Lady Ayan

Last reported at 2018-Jan-05 08:38 UTC. Time now 2018-Jan-19 09:50 UTC.
Position N 37°58' E 026°22'.
Warning: this ship's position is 14 days out of date.

Length 95 m; draft 3.7 m.

Type: Cargo ship. MMSI: 372212000.

Date/timePositionNaut miles runAvg speedWind from/ knotsBaromVisibWave heightAir tempDewpointWater temp
2018-Jan-05 08:38N 37°58' E 026°22'210.5
2018-Jan-05 08:28N 37°56' E 026°23'510.4
2018-Jan-05 08:00N 37°52' E 026°26'1210.1
2018-Jan-05 06:51N 37°41' E 026°32'3 9.6
2018-Jan-05 06:29N 37°39' E 026°35'7 9.7
2018-Jan-05 05:45N 37°33' E 026°41'5 9.5
2018-Jan-05 05:12N 37°29' E 026°45'2 9.7
2018-Jan-05 05:00N 37°28' E 026°47'7 9.8
2018-Jan-05 04:18N 37°22' E 026°51'  
2017-Dec-27 23:29N 36°42' E 027°19'39 8.7
2017-Dec-27 18:59N 37°15' E 026°54'510.0
2017-Dec-27 18:30N 37°19' E 026°51'510.1
2017-Dec-27 18:00N 37°24' E 026°48'15 9.8
2017-Dec-27 16:26N 37°36' E 026°36'13 9.3
2017-Dec-27 15:03N 37°47' E 026°29'0 9.5
2017-Dec-27 15:00N 37°48' E 026°29'5 9.5
2017-Dec-27 14:30N 37°52' E 026°26'510.1
2017-Dec-27 14:00N 37°57' E 026°23'  

Dump ship's entire track history